Pierces Chapel, Texas
Current Conditions -  °F | °C
As of 3:35 PM on Saturday 22 Nov 2014 (Local Time) from KJSO Reporting Station
Light Rain Light Rain  
Wind Chill: 65°   Ceiling: 1800
Heat Index: 65°   Visibility: 10mi
Dew Point: 61°   Wind: 8mph
Humidity: 86%   Direction: 130°SE
Pressure: 29.93"   Gusts: NA
Location:  31.9649°N, 95.3036°W
Report Text: KJSO 222135Z AUTO 13007KT 10SM -RA BKN018 OVC023 18/16 A2993 RMK AO2 P0001 T01830160
Loading
Personal Weather Stations






























Interactive Weather Map New forecast layout! Learn more

10-Day Weather Forecast

Advertisements
Track Severe Weather on mobile